createdAt,value
2019-05-02T00:00:06.120Z,15.97
2019-05-02T00:02:34.990Z,23.10
2019-05-02T00:05:04.948Z,17.40
2019-05-02T00:07:33.661Z,19.27
2019-05-02T00:10:03.254Z,17.47
2019-05-02T00:12:31.852Z,16.83
2019-05-02T00:15:02.048Z,16.30
2019-05-02T00:17:31.134Z,20.80
2019-05-02T00:20:00.034Z,14.73
2019-05-02T00:22:29.087Z,13.83
2019-05-02T00:24:57.407Z,18.43
2019-05-02T00:27:25.508Z,16.30
2019-05-02T00:29:58.602Z,14.73
2019-05-02T00:32:24.707Z,17.23
2019-05-02T00:34:53.387Z,13.17
2019-05-02T00:37:24.480Z,17.57
2019-05-02T00:39:52.096Z,14.50
2019-05-02T00:42:22.428Z,15.77
2019-05-02T00:44:50.262Z,16.53
2019-05-02T00:47:33.020Z,16.93
2019-05-02T00:50:06.314Z,17.83
2019-05-02T00:52:32.868Z,21.63
2019-05-02T00:55:02.494Z,15.00
2019-05-02T00:57:33.832Z,17.93
2019-05-02T01:00:02.104Z,16.73
2019-05-02T01:02:40.672Z,17.33
2019-05-02T01:05:07.775Z,16.07
2019-05-02T01:07:35.882Z,14.43
2019-05-02T01:10:04.269Z,15.93
2019-05-02T01:12:32.835Z,15.00
2019-05-02T01:15:03.239Z,14.10
2019-05-02T01:17:32.225Z,15.47
2019-05-02T01:20:00.493Z,16.50
2019-05-02T01:22:28.840Z,16.27
2019-05-02T01:24:57.235Z,14.57
2019-05-02T01:27:36.117Z,12.37
2019-05-02T01:30:21.787Z,16.60
2019-05-02T01:33:06.451Z,14.87
2019-05-02T01:35:51.027Z,15.83
2019-05-02T01:38:33.792Z,18.83
2019-05-02T01:41:02.520Z,15.03
2019-05-02T01:43:30.904Z,16.17
2019-05-02T01:45:59.196Z,18.50
2019-05-02T01:48:27.827Z,16.80
2019-05-02T01:50:56.091Z,16.50
2019-05-02T01:53:24.348Z,23.70
2019-05-02T01:55:57.281Z,14.97
2019-05-02T01:58:23.044Z,15.10
2019-05-02T02:00:53.867Z,16.77
2019-05-02T02:03:22.206Z,13.10
2019-05-02T02:05:51.182Z,12.87
2019-05-02T02:08:19.699Z,13.70
2019-05-02T02:10:50.611Z,19.27
2019-05-02T02:13:18.133Z,14.87
2019-05-02T02:15:46.482Z,16.33
2019-05-02T02:18:16.069Z,16.77
2019-05-02T02:21:00.296Z,15.10
2019-05-02T02:23:49.675Z,15.60
2019-05-02T02:26:19.123Z,18.67
2019-05-02T02:28:47.701Z,17.73
2019-05-02T02:31:18.602Z,14.77
2019-05-02T02:33:49.509Z,22.20
2019-05-02T02:36:29.980Z,18.03
2019-05-02T02:38:48.892Z,17.57
2019-05-02T02:41:16.963Z,17.00
2019-05-02T02:44:02.919Z,19.77
2019-05-02T02:46:37.894Z,19.00
2019-05-02T02:49:03.098Z,16.63
2019-05-02T02:51:31.229Z,16.97
2019-05-02T02:54:04.058Z,15.30
2019-05-02T02:56:34.568Z,15.67
2019-05-02T02:58:59.884Z,14.40
2019-05-02T03:01:29.727Z,17.83
2019-05-02T03:04:01.847Z,18.77
2019-05-02T03:06:28.603Z,18.17
2019-05-02T03:08:57.752Z,19.27
2019-05-02T03:11:38.959Z,21.37
2019-05-02T03:14:21.186Z,20.00
2019-05-02T03:16:56.038Z,17.00
2019-05-02T03:19:24.134Z,24.23
2019-05-02T03:22:00.820Z,19.20
2019-05-02T03:24:25.864Z,14.77
2019-05-02T03:26:55.673Z,12.30
2019-05-02T03:29:41.382Z,12.63
2019-05-02T03:32:16.043Z,12.83
2019-05-02T03:34:47.177Z,11.57
2019-05-02T03:37:10.516Z,9.47
2019-05-02T03:39:36.413Z,12.40
2019-05-02T03:42:05.091Z,14.57
2019-05-02T03:44:33.410Z,10.87
2019-05-02T03:47:04.492Z,8.73
2019-05-02T03:49:31.969Z,9.50
2019-05-02T03:52:02.787Z,8.17
2019-05-02T03:54:31.457Z,11.33
2019-05-02T03:56:59.610Z,9.47
2019-05-02T03:59:37.376Z,8.70
2019-05-02T04:01:58.580Z,6.73
2019-05-02T04:04:27.076Z,6.33
2019-05-02T04:07:01.174Z,7.73
2019-05-02T04:09:38.530Z,4.27
2019-05-02T04:12:02.477Z,5.80
2019-05-02T04:14:38.126Z,5.07
2019-05-02T04:17:01.718Z,6.77
2019-05-02T04:19:35.240Z,7.67
2019-05-02T04:22:07.897Z,10.60
2019-05-02T04:24:31.603Z,10.30
2019-05-02T04:26:59.821Z,14.07
2019-05-02T04:29:31.375Z,12.03
2019-05-02T04:32:04.413Z,14.00
2019-05-02T04:34:28.643Z,20.80
2019-05-02T04:37:00.964Z,13.33
2019-05-02T04:39:28.635Z,18.00
2019-05-02T04:41:58.677Z,21.77
2019-05-02T04:44:32.457Z,20.73
2019-05-02T04:46:59.898Z,17.70
2019-05-02T04:49:29.969Z,19.47
2019-05-02T04:52:01.591Z,18.00
2019-05-02T04:54:31.820Z,22.90
2019-05-02T04:56:59.123Z,21.37
2019-05-02T04:59:28.441Z,21.83
2019-05-02T05:01:58.561Z,18.97
2019-05-02T05:04:27.613Z,18.40
2019-05-02T05:07:00.592Z,21.60
2019-05-02T05:09:27.812Z,24.83
2019-05-02T05:11:59.030Z,21.07
2019-05-02T05:14:24.980Z,19.77
2019-05-02T05:16:55.719Z,25.17
2019-05-02T05:19:28.755Z,20.40
2019-05-02T05:21:58.844Z,19.30
2019-05-02T05:24:38.516Z,23.40
2019-05-02T05:27:03.116Z,22.60
2019-05-02T05:29:31.140Z,21.53
2019-05-02T05:32:05.228Z,21.77
2019-05-02T05:34:32.456Z,25.33
2019-05-02T05:36:58.422Z,20.13
2019-05-02T05:39:28.150Z,26.13
2019-05-02T05:41:57.714Z,23.90
2019-05-02T05:44:28.686Z,28.93
2019-05-02T05:46:55.282Z,20.43
2019-05-02T05:49:23.012Z,20.93
2019-05-02T05:51:54.511Z,22.77
2019-05-02T05:54:20.356Z,19.70
2019-05-02T05:56:48.183Z,22.87
2019-05-02T05:59:17.516Z,22.60
2019-05-02T06:01:47.822Z,19.87
2019-05-02T06:04:19.465Z,22.07
2019-05-02T06:06:45.229Z,17.23
2019-05-02T06:09:16.041Z,24.07
2019-05-02T06:11:43.744Z,21.60
2019-05-02T06:14:19.827Z,21.77
2019-05-02T06:16:46.532Z,23.87
2019-05-02T06:19:17.824Z,21.87
2019-05-02T06:21:45.102Z,19.47
2019-05-02T06:24:15.703Z,16.90
2019-05-02T06:26:44.649Z,17.93
2019-05-02T06:29:18.504Z,13.07
2019-05-02T06:31:44.480Z,12.87
2019-05-02T06:34:12.271Z,25.33
2019-05-02T06:36:40.018Z,9.17
2019-05-02T06:39:08.464Z,7.40
2019-05-02T06:41:57.530Z,9.07
2019-05-02T06:44:25.960Z,12.37
2019-05-02T06:46:53.731Z,8.53
2019-05-02T06:49:24.312Z,7.73
2019-05-02T06:51:56.134Z,7.83
2019-05-02T06:54:22.861Z,6.67
2019-05-02T06:56:51.312Z,12.63
2019-05-02T06:59:20.325Z,8.33
2019-05-02T07:01:52.252Z,9.40
2019-05-02T07:04:22.896Z,5.97
2019-05-02T07:06:58.206Z,4.85
2019-05-02T07:09:19.955Z,15.78
2019-05-02T07:11:57.119Z,7.40
2019-05-02T07:14:18.612Z,6.28
2019-05-02T07:16:59.809Z,10.50
2019-05-02T07:19:30.344Z,6.60
2019-05-02T07:22:00.361Z,7.65
2019-05-02T07:24:30.577Z,11.18
2019-05-02T07:26:58.612Z,4.42
2019-05-02T07:29:26.682Z,6.50
2019-05-02T07:31:55.084Z,6.70
2019-05-02T07:34:23.127Z,10.50
2019-05-02T07:36:50.877Z,7.55
2019-05-02T07:39:18.745Z,5.55
2019-05-02T07:41:46.545Z,7.78
2019-05-02T07:44:14.704Z,7.42
2019-05-02T07:46:51.714Z,5.85
2019-05-02T07:49:13.108Z,6.83
2019-05-02T07:51:41.158Z,8.43
2019-05-02T07:54:09.267Z,6.58
2019-05-02T07:56:36.992Z,6.50
2019-05-02T07:59:05.603Z,10.23
2019-05-02T08:01:33.517Z,7.03
2019-05-02T08:04:04.410Z,9.13
2019-05-02T08:06:35.281Z,7.33
2019-05-02T08:09:07.180Z,6.83
2019-05-02T08:11:36.669Z,15.07
2019-05-02T08:14:02.419Z,10.57
2019-05-02T08:16:30.287Z,6.87
2019-05-02T08:19:01.351Z,11.40
2019-05-02T08:21:32.604Z,6.95
2019-05-02T08:24:02.222Z,7.67
2019-05-02T08:26:43.776Z,9.43
2019-05-02T08:29:11.763Z,6.17
2019-05-02T08:31:39.940Z,6.37
2019-05-02T08:34:14.621Z,10.80
2019-05-02T08:36:38.013Z,8.20
2019-05-02T08:39:06.366Z,4.60
2019-05-02T08:41:34.478Z,5.28
2019-05-02T08:44:02.625Z,5.40
2019-05-02T08:46:30.782Z,4.37
2019-05-02T08:48:59.957Z,4.03
2019-05-02T08:51:27.679Z,15.50
2019-05-02T08:53:56.890Z,4.57
2019-05-02T08:56:27.072Z,4.60
2019-05-02T08:58:55.283Z,3.43
2019-05-02T09:01:34.514Z,4.07
2019-05-02T09:03:56.474Z,3.07
2019-05-02T09:06:24.183Z,3.70
2019-05-02T09:08:52.881Z,2.37
2019-05-02T09:11:21.231Z,3.40
2019-05-02T09:13:48.996Z,5.57
2019-05-02T09:16:20.967Z,3.00
2019-05-02T09:18:51.812Z,4.03
2019-05-02T09:21:17.196Z,2.73
2019-05-02T09:23:45.256Z,2.97
2019-05-02T09:26:12.978Z,3.63
2019-05-02T09:28:42.266Z,2.30
2019-05-02T09:31:12.377Z,2.40
2019-05-02T09:33:42.501Z,3.37
2019-05-02T09:36:11.906Z,7.45
2019-05-02T09:38:42.301Z,3.77
2019-05-02T09:41:26.845Z,6.10
2019-05-02T09:43:52.837Z,6.67
2019-05-02T09:46:21.781Z,6.27
2019-05-02T09:48:51.851Z,5.37
2019-05-02T09:51:21.643Z,3.40
2019-05-02T09:53:52.365Z,4.67
2019-05-02T09:56:21.973Z,11.50
2019-05-02T09:58:55.046Z,4.30
2019-05-02T10:01:26.673Z,4.83
2019-05-02T10:03:55.062Z,4.37
2019-05-02T10:06:23.562Z,4.03
2019-05-02T10:08:52.363Z,4.78
2019-05-02T10:11:22.539Z,4.10
2019-05-02T10:13:51.905Z,3.80
2019-05-02T10:16:23.583Z,7.23
2019-05-02T10:18:52.300Z,2.93
2019-05-02T10:21:22.819Z,3.40
2019-05-02T10:24:01.706Z,3.83
2019-05-02T10:26:30.306Z,2.77
2019-05-02T10:28:58.306Z,4.20
2019-05-02T10:31:27.577Z,3.17
2019-05-02T10:33:56.583Z,5.47
2019-05-02T10:36:24.837Z,3.13
2019-05-02T10:38:58.849Z,4.03
2019-05-02T10:41:23.959Z,4.87
2019-05-02T10:43:56.637Z,5.63
2019-05-02T10:46:33.535Z,4.67
2019-05-02T10:49:12.530Z,5.30
2019-05-02T10:51:43.418Z,5.73
2019-05-02T10:54:12.013Z,4.93
2019-05-02T10:56:42.245Z,6.43
2019-05-02T10:59:11.794Z,7.77
2019-05-02T11:02:03.644Z,5.00
2019-05-02T11:04:34.088Z,6.83
2019-05-02T11:07:02.649Z,6.07
2019-05-02T11:09:32.659Z,6.37
2019-05-02T11:12:03.009Z,7.70
2019-05-02T11:14:52.996Z,7.87
2019-05-02T11:17:32.317Z,8.80
2019-05-02T11:20:03.218Z,8.00
2019-05-02T11:22:32.129Z,9.23
2019-05-02T11:25:01.671Z,8.07
2019-05-02T11:27:30.207Z,7.87
2019-05-02T11:29:58.255Z,9.87
2019-05-02T11:32:27.123Z,8.23
2019-05-02T11:34:55.127Z,8.47
2019-05-02T11:37:23.413Z,8.70
2019-05-02T11:39:57.818Z,7.10
2019-05-02T11:42:23.306Z,8.40
2019-05-02T11:44:52.377Z,8.20
2019-05-02T11:47:22.732Z,6.37
2019-05-02T11:49:55.774Z,8.67
2019-05-02T11:52:22.648Z,6.67
2019-05-02T11:54:52.115Z,8.43
2019-05-02T11:57:28.232Z,8.17
2019-05-02T11:59:52.105Z,7.30
2019-05-02T12:02:42.858Z,8.03
2019-05-02T12:05:13.347Z,6.47
2019-05-02T12:07:42.099Z,8.07
2019-05-02T12:10:12.534Z,7.23
2019-05-02T12:12:42.846Z,5.20
2019-05-02T12:15:11.975Z,6.73
2019-05-02T12:17:41.948Z,7.20
2019-05-02T12:20:11.862Z,6.30
2019-05-02T12:22:41.972Z,8.93
2019-05-02T12:25:12.463Z,7.67
2019-05-02T12:27:42.348Z,10.80
2019-05-02T12:30:12.024Z,10.83
2019-05-02T12:32:42.223Z,9.00
2019-05-02T12:35:11.843Z,9.93
2019-05-02T12:37:42.239Z,8.27
2019-05-02T12:40:12.211Z,7.67
2019-05-02T12:42:41.830Z,7.37
2019-05-02T12:45:12.462Z,8.43
2019-05-02T12:47:42.674Z,7.03
2019-05-02T12:50:12.627Z,6.73
2019-05-02T12:52:42.750Z,10.20
2019-05-02T12:55:12.800Z,8.63
2019-05-02T12:57:42.784Z,6.53
2019-05-02T13:00:12.885Z,8.23
2019-05-02T13:02:46.982Z,7.50
2019-05-02T13:05:15.670Z,9.77
2019-05-02T13:07:50.387Z,9.33
2019-05-02T13:10:21.961Z,8.27
2019-05-02T13:12:50.319Z,8.10
2019-05-02T13:15:18.751Z,9.50
2019-05-02T13:17:48.913Z,11.97
2019-05-02T13:20:18.821Z,9.00
2019-05-02T13:23:09.648Z,8.10
2019-05-02T13:25:38.196Z,6.10
2019-05-02T13:28:06.428Z,8.53
2019-05-02T13:30:46.740Z,8.77
2019-05-02T13:33:27.244Z,7.70
2019-05-02T13:35:56.675Z,7.47
2019-05-02T13:38:25.327Z,11.23
2019-05-02T13:40:54.296Z,8.43
2019-05-02T13:43:25.235Z,8.30
2019-05-02T13:46:26.784Z,8.00
2019-05-02T13:48:55.232Z,14.07
2019-05-02T13:51:24.086Z,10.90
2019-05-02T13:53:55.682Z,12.07
2019-05-02T13:56:46.172Z,11.77
2019-05-02T13:59:14.939Z,16.47
2019-05-02T14:01:43.768Z,12.80
2019-05-02T14:04:14.969Z,14.50
2019-05-02T14:06:42.181Z,15.03
2019-05-02T14:09:32.497Z,12.63
2019-05-02T14:12:09.134Z,15.40
2019-05-02T14:14:37.546Z,10.83
2019-05-02T14:17:05.693Z,15.23
2019-05-02T14:19:34.156Z,13.83
2019-05-02T14:22:03.049Z,13.50
2019-05-02T14:24:32.361Z,16.77
2019-05-02T14:27:02.656Z,12.27
2019-05-02T14:29:33.012Z,13.60
2019-05-02T14:32:02.696Z,14.53
2019-05-02T14:34:38.806Z,13.13
2019-05-02T14:37:07.184Z,17.83
2019-05-02T14:39:35.220Z,14.67
2019-05-02T14:42:03.809Z,15.33
2019-05-02T14:44:59.811Z,15.43
2019-05-02T14:47:03.759Z,16.33
2019-05-02T14:49:32.703Z,14.57
2019-05-02T14:52:05.146Z,17.93
2019-05-02T14:54:32.428Z,18.60
2019-05-02T14:57:08.156Z,19.00
2019-05-02T14:59:36.177Z,21.93
2019-05-02T15:02:07.832Z,22.27
2019-05-02T15:04:38.422Z,22.97
2019-05-02T15:07:06.262Z,20.67
2019-05-02T15:09:36.105Z,24.00
2019-05-02T15:12:14.068Z,27.40
2019-05-02T15:14:34.820Z,20.87
2019-05-02T15:17:03.950Z,23.43
2019-05-02T15:19:32.958Z,22.50
2019-05-02T15:22:02.282Z,24.10
2019-05-02T15:24:33.424Z,24.37
2019-05-02T15:27:03.650Z,21.93
2019-05-02T15:29:32.177Z,25.00
2019-05-02T15:32:12.978Z,24.33
2019-05-02T15:35:23.040Z,22.80
2019-05-02T15:37:51.660Z,22.97
2019-05-02T15:40:46.781Z,28.43
2019-05-02T15:42:51.876Z,27.10
2019-05-02T15:45:23.824Z,26.13
2019-05-02T15:47:52.782Z,24.63
2019-05-02T15:50:21.938Z,20.03
2019-05-02T15:52:57.379Z,23.30
2019-05-02T15:55:27.357Z,27.90
2019-05-02T15:57:56.040Z,23.80
2019-05-02T16:00:32.226Z,24.53
2019-05-02T16:03:04.244Z,25.63
2019-05-02T16:05:32.001Z,24.13
2019-05-02T16:08:06.310Z,29.13
2019-05-02T16:10:38.438Z,23.27
2019-05-02T16:13:08.816Z,26.00
2019-05-02T16:15:36.387Z,24.37
2019-05-02T16:18:05.366Z,25.03
2019-05-02T16:20:47.398Z,23.60
2019-05-02T16:23:12.320Z,32.43
2019-05-02T16:25:40.367Z,24.00
2019-05-02T16:28:08.111Z,23.13
2019-05-02T16:30:37.022Z,23.73
2019-05-02T16:33:07.950Z,23.60
2019-05-02T16:35:35.657Z,27.43
2019-05-02T16:38:03.953Z,29.00
2019-05-02T16:40:34.622Z,23.47
2019-05-02T16:43:02.840Z,21.93
2019-05-02T16:45:32.786Z,25.80
2019-05-02T16:48:03.329Z,26.93
2019-05-02T16:50:34.773Z,23.27
2019-05-02T16:53:02.341Z,25.27
2019-05-02T16:55:32.536Z,25.73
2019-05-02T16:58:02.659Z,23.70
2019-05-02T17:00:32.025Z,22.83
2019-05-02T17:03:02.052Z,23.03
2019-05-02T17:05:30.108Z,23.07
2019-05-02T17:08:18.933Z,23.17
2019-05-02T17:10:53.788Z,26.23
2019-05-02T17:13:21.630Z,25.83
2019-05-02T17:15:49.655Z,22.40
2019-05-02T17:18:18.409Z,25.70
2019-05-02T17:20:51.859Z,27.93
2019-05-02T17:23:16.730Z,23.80
2019-05-02T17:25:44.849Z,29.12
2019-05-02T17:28:14.036Z,27.00
2019-05-02T17:30:43.086Z,20.32
2019-05-02T17:33:16.030Z,22.43
2019-05-02T17:35:49.461Z,21.70
2019-05-02T17:38:12.078Z,18.87
2019-05-02T17:40:42.214Z,17.87
2019-05-02T17:43:11.770Z,11.73
2019-05-02T17:45:40.271Z,10.13
2019-05-02T17:48:15.855Z,12.93
2019-05-02T17:51:03.154Z,13.13
2019-05-02T17:53:33.920Z,11.17
2019-05-02T17:56:02.110Z,10.27
2019-05-02T17:58:31.830Z,11.20
2019-05-02T18:01:02.589Z,7.37
2019-05-02T18:03:34.978Z,9.60
2019-05-02T18:06:02.647Z,11.13
2019-05-02T18:08:32.305Z,17.90
2019-05-02T18:11:02.650Z,17.10
2019-05-02T18:13:33.733Z,18.00
2019-05-02T18:16:02.661Z,17.30
2019-05-02T18:18:31.959Z,18.10
2019-05-02T18:21:02.069Z,12.27
2019-05-02T18:23:33.605Z,18.20
2019-05-02T18:26:04.980Z,16.73
2019-05-02T18:28:31.686Z,14.53
2019-05-02T18:31:02.807Z,15.77
2019-05-02T18:33:30.523Z,19.10
2019-05-02T18:35:58.565Z,14.30
2019-05-02T18:38:28.695Z,19.37
2019-05-02T18:41:00.245Z,18.00
2019-05-02T18:43:27.472Z,13.63
2019-05-02T18:45:58.162Z,12.17
2019-05-02T18:48:26.982Z,13.00
2019-05-02T18:50:55.695Z,12.43
2019-05-02T18:53:27.141Z,14.40
2019-05-02T18:55:56.845Z,11.07
2019-05-02T18:58:27.489Z,11.23
2019-05-02T19:00:55.607Z,18.57
2019-05-02T19:03:23.806Z,13.20
2019-05-02T19:05:57.201Z,11.53
2019-05-02T19:08:31.201Z,15.43
2019-05-02T19:11:05.262Z,14.80
2019-05-02T19:13:25.075Z,12.70
2019-05-02T19:15:53.542Z,13.10
2019-05-02T19:18:21.552Z,14.40
2019-05-02T19:20:59.805Z,14.33
2019-05-02T19:23:28.128Z,17.63
2019-05-02T19:25:56.289Z,17.23
2019-05-02T19:28:29.033Z,16.10
2019-05-02T19:31:03.011Z,18.43
2019-05-02T19:33:28.198Z,17.23
2019-05-02T19:35:57.400Z,19.73
2019-05-02T19:38:26.392Z,19.57
2019-05-02T19:40:58.095Z,21.33
2019-05-02T19:43:25.671Z,15.20
2019-05-02T19:45:54.496Z,19.33
2019-05-02T19:48:27.426Z,20.20
2019-05-02T19:50:53.539Z,19.37
2019-05-02T19:53:22.818Z,21.50
2019-05-02T19:55:52.128Z,16.80
2019-05-02T19:58:20.549Z,17.60
2019-05-02T20:00:48.706Z,17.50
2019-05-02T20:03:36.196Z,21.70
2019-05-02T20:06:06.165Z,15.87
2019-05-02T20:08:34.203Z,20.03
2019-05-02T20:11:02.389Z,20.33
2019-05-02T20:13:32.514Z,16.17
2019-05-02T20:16:11.866Z,18.03
2019-05-02T20:18:43.962Z,23.57
2019-05-02T20:21:27.421Z,20.77
2019-05-02T20:23:52.793Z,18.63
2019-05-02T20:26:22.143Z,17.00
2019-05-02T20:28:52.614Z,15.87
2019-05-02T20:31:21.684Z,15.40
2019-05-02T20:33:51.914Z,17.03
2019-05-02T20:36:22.815Z,15.40
2019-05-02T20:38:52.574Z,15.83
2019-05-02T20:41:22.424Z,12.80
2019-05-02T20:43:51.695Z,17.87
2019-05-02T20:46:21.709Z,12.63
2019-05-02T20:48:52.380Z,15.10
2019-05-02T20:51:22.734Z,16.60
2019-05-02T20:53:52.600Z,17.93
2019-05-02T20:56:22.959Z,18.97
2019-05-02T20:58:52.683Z,14.20
2019-05-02T21:01:21.303Z,15.37
2019-05-02T21:03:52.063Z,15.50
2019-05-02T21:06:40.832Z,14.17
2019-05-02T21:09:23.534Z,14.93
2019-05-02T21:11:55.822Z,18.37
2019-05-02T21:14:23.951Z,18.60
2019-05-02T21:16:52.078Z,20.20
2019-05-02T21:19:21.765Z,18.20
2019-05-02T21:21:52.481Z,16.37
2019-05-02T21:24:22.071Z,18.70
2019-05-02T21:26:52.366Z,12.43
2019-05-02T21:29:20.295Z,15.53
2019-05-02T21:31:48.367Z,14.53
2019-05-02T21:34:16.792Z,14.53
2019-05-02T21:36:44.875Z,15.30
2019-05-02T21:39:13.212Z,15.57
2019-05-02T21:41:42.353Z,14.00
2019-05-02T21:44:12.963Z,16.37
2019-05-02T21:46:42.370Z,19.23
2019-05-02T21:49:12.631Z,11.50
2019-05-02T21:52:03.087Z,13.93
2019-05-02T21:54:40.264Z,16.10
2019-05-02T21:57:12.155Z,16.47
2019-05-02T21:59:42.116Z,17.03
2019-05-02T22:02:12.122Z,12.80
2019-05-02T22:04:40.015Z,20.03
2019-05-02T22:07:08.707Z,13.60
2019-05-02T22:09:37.071Z,20.47
2019-05-02T22:12:05.683Z,18.57
2019-05-02T22:14:33.603Z,19.00
2019-05-02T22:17:02.281Z,16.13
2019-05-02T22:19:32.286Z,14.30
2019-05-02T22:22:01.650Z,15.73
2019-05-02T22:24:30.195Z,18.77
2019-05-02T22:26:58.696Z,14.07
2019-05-02T22:29:28.235Z,18.37
2019-05-02T22:31:56.600Z,13.70
2019-05-02T22:34:24.851Z,13.33
2019-05-02T22:36:54.330Z,15.87
2019-05-02T22:39:42.151Z,16.17
2019-05-02T22:42:12.574Z,15.73
2019-05-02T22:44:41.698Z,14.77
2019-05-02T22:47:11.850Z,16.70
2019-05-02T22:49:42.294Z,18.67
2019-05-02T22:52:12.461Z,19.17
2019-05-02T22:54:41.670Z,19.77
2019-05-02T22:57:11.919Z,18.77
2019-05-02T22:59:42.134Z,16.90
2019-05-02T23:02:10.221Z,18.87
2019-05-02T23:04:38.567Z,19.87
2019-05-02T23:07:07.377Z,20.83
2019-05-02T23:09:35.921Z,21.27
2019-05-02T23:12:04.559Z,25.80
2019-05-02T23:14:32.960Z,19.90
2019-05-02T23:17:02.071Z,19.03
2019-05-02T23:19:31.708Z,19.23
2019-05-02T23:22:01.897Z,20.47
2019-05-02T23:24:55.537Z,18.00
2019-05-02T23:27:45.827Z,17.67
2019-05-02T23:30:16.358Z,25.23
2019-05-02T23:32:45.115Z,22.13
2019-05-02T23:35:13.347Z,19.07
2019-05-02T23:37:42.361Z,22.27
2019-05-02T23:40:12.462Z,25.70
2019-05-02T23:42:41.713Z,22.70
2019-05-02T23:45:11.954Z,24.60
2019-05-02T23:47:42.197Z,28.80
2019-05-02T23:50:12.129Z,21.13
2019-05-02T23:52:40.526Z,23.43
2019-05-02T23:55:08.939Z,22.70
2019-05-02T23:57:37.315Z,21.20
